Time;durP1;ratioP1;P1;durP2;ratioP2;P2;SDS_P1;SDS_P2;PMS_P1;PMS_P2;Temp;Humidity;BMP_temperature;BMP_pressure;BME280_temperature;BME280_humidity;BME280_pressure;Samples;Min_cycle;Max_cycle;Signal;HPM_P1;HPM_P2
2022/01/28 00:02:48;;;;;;;;;;;3.80;99.90;;;;;;5059161;28;19931;-74
2022/01/28 00:05:20;;;;;;;;;;;3.80;99.90;;;;;;5073005;28;20515;-74
2022/01/28 00:07:45;;;;;;;;;;;3.80;99.90;;;;;;5063210;28;19928;-74
2022/01/28 00:10:11;;;;;;;;;;;3.80;99.90;;;;;;5052740;28;19921;-74
2022/01/28 00:12:47;;;;;;;;;;;3.80;99.90;;;;;;5052522;28;20445;-74
2022/01/28 00:15:22;;;;;;;;;;;3.70;99.90;;;;;;5052871;28;19928;-74
2022/01/28 00:36:45;;;;;;;;;;;3.30;99.90;;;;;;5052781;28;19943;-74
2022/01/28 00:39:10;;;;;;;;;;;3.30;99.90;;;;;;5072060;28;19924;-75
2022/01/28 00:41:36;;;;;;;;;;;3.30;99.90;;;;;;5068923;28;20337;-75
2022/01/28 00:44:01;;;;;;;;;;;3.20;99.90;;;;;;5052052;28;19943;-75
2022/01/28 00:46:27;;;;;;;;;;;3.20;99.90;;;;;;5050985;28;19921;-75
2022/01/28 00:48:52;;;;;;;;;;;3.10;99.90;;;;;;5071378;28;19966;-75
2022/01/28 00:51:18;;;;;;;;;;;3.20;99.90;;;;;;5072067;28;19924;-75
2022/01/28 00:53:43;;;;;;;;;;;3.10;99.90;;;;;;5067765;28;19928;-75
2022/01/28 00:56:09;;;;;;;;;;;3.20;99.90;;;;;;5051999;28;19920;-75
2022/01/28 00:58:34;;;;;;;;;;;3.20;99.90;;;;;;5035931;28;20007;-75
2022/01/28 01:01:00;;;;;;;;;;;3.20;99.90;;;;;;5068551;28;19920;-75
2022/01/28 01:03:25;;;;;;;;;;;3.30;99.90;;;;;;5085519;28;19920;-75
2022/01/28 01:05:51;;;;;;;;;;;3.30;99.90;;;;;;5035338;28;19928;-75
2022/01/28 01:08:16;;;;;;;;;;;3.40;99.90;;;;;;5061996;28;20029;-75
2022/01/28 01:10:42;;;;;;;;;;;3.40;99.90;;;;;;5071679;28;20066;-75
2022/01/28 01:13:08;;;;;;;;;;;3.40;99.90;;;;;;5063910;28;19967;-75
2022/01/28 01:15:38;;;;;;;;;;;3.40;99.90;;;;;;5070155;28;20389;-75
2022/01/28 01:18:33;;;;;;;;;;;3.40;99.90;;;;;;5066362;28;19931;-75
2022/01/28 01:21:25;;;;;;;;;;;3.50;99.90;;;;;;5051347;28;20290;-75
2022/01/28 01:23:50;;;;;;;;;;;3.50;99.90;;;;;;5061098;28;19927;-75
2022/01/28 01:26:15;;;;;;;;;;;3.60;99.90;;;;;;5055458;28;20294;-75
2022/01/28 01:28:41;;;;;;;;;;;3.70;99.90;;;;;;5051754;28;19920;-75
2022/01/28 01:31:11;;;;;;;;;;;3.70;99.90;;;;;;5068098;28;20003;-75
2022/01/28 01:33:42;;;;;;;;;;;3.70;99.90;;;;;;5070876;28;19927;-74
2022/01/28 01:36:08;;;;;;;;;;;3.70;99.90;;;;;;5054810;28;20367;-75
2022/01/28 01:38:36;;;;;;;;;;;3.70;99.90;;;;;;5054211;28;19925;-74
2022/01/28 01:41:03;;;;;;;;;;;3.70;99.90;;;;;;5071827;28;19921;-74
2022/01/28 01:52:06;;;;;;;;;;;3.50;99.90;;;;;;5070955;28;19987;-74
2022/01/28 01:54:35;;;;;;;;;;;3.50;99.90;;;;;;5071273;28;20407;-75
2022/01/28 01:57:01;;;;;;;;;;;3.40;99.90;;;;;;5071650;28;19924;-76
2022/01/28 01:59:26;;;;;;;;;;;3.50;99.90;;;;;;5075475;28;19976;-75
2022/01/28 02:01:52;;;;;;;;;;;3.50;99.90;;;;;;5070908;28;19928;-75
2022/01/28 02:04:17;;;;;;;;;;;3.50;99.90;;;;;;5071066;28;20011;-75
2022/01/28 02:06:43;;;;;;;;;;;3.50;99.90;;;;;;5071087;28;20295;-75
2022/01/28 02:09:08;;;;;;;;;;;3.60;99.90;;;;;;5070307;28;20007;-75
2022/01/28 02:11:34;;;;;;;;;;;3.60;99.90;;;;;;5051769;28;20011;-75
2022/01/28 02:14:00;;;;;;;;;;;3.70;99.90;;;;;;5070679;28;19920;-75
2022/01/28 02:16:25;;;;;;;;;;;3.80;99.90;;;;;;5061195;28;19921;-74
2022/01/28 02:18:52;;;;;;;;;;;3.90;99.90;;;;;;5087391;28;20382;-76
2022/01/28 02:21:18;;;;;;;;;;;3.90;99.90;;;;;;5070910;28;19972;-75
2022/01/28 02:23:48;;;;;;;;;;;3.80;99.90;;;;;;5053828;28;20404;-75
2022/01/28 02:26:16;;;;;;;;;;;3.80;99.90;;;;;;5059205;28;19921;-75
2022/01/28 02:28:44;;;;;;;;;;;3.70;99.90;;;;;;5052441;28;20439;-75
2022/01/28 02:31:09;;;;;;;;;;;3.60;99.90;;;;;;5033893;28;20012;-75
2022/01/28 02:33:35;;;;;;;;;;;3.50;99.90;;;;;;5050572;28;20394;-75
2022/01/28 02:36:06;;;;;;;;;;;3.50;99.90;;;;;;5034162;28;19921;-75
2022/01/28 02:38:33;;;;;;;;;;;3.50;99.90;;;;;;5059772;28;19920;-75
2022/01/28 02:41:00;;;;;;;;;;;3.40;99.90;;;;;;5054406;28;19920;-75
2022/01/28 02:43:37;;;;;;;;;;;3.40;99.90;;;;;;5074587;28;19920;-75
2022/01/28 02:46:12;;;;;;;;;;;3.40;99.90;;;;;;5071214;28;19927;-75
2022/01/28 02:48:41;;;;;;;;;;;3.40;99.90;;;;;;5055050;28;20302;-75
2022/01/28 02:53:54;;;;;;;;;;;3.40;99.90;;;;;;5058526;28;19920;-75
2022/01/28 02:56:33;;;;;;;;;;;3.50;99.90;;;;;;5054742;28;20008;-75
2022/01/28 02:58:59;;;;;;;;;;;3.60;99.90;;;;;;5038305;28;20301;-75
2022/01/28 03:01:24;;;;;;;;;;;3.70;99.90;;;;;;5071171;28;19921;-74
2022/01/28 03:03:50;;;;;;;;;;;3.70;99.90;;;;;;5058413;28;19920;-75
2022/01/28 03:06:17;;;;;;;;;;;3.80;99.90;;;;;;5073151;28;19931;-76
2022/01/28 03:08:48;;;;;;;;;;;3.80;99.90;;;;;;5071996;28;19920;-75
2022/01/28 03:12:11;;;;;;;;;;;3.80;99.90;;;;;;5074177;28;19928;-75
2022/01/28 03:19:45;;;;;;;;;;;3.90;99.90;;;;;;5073904;28;19927;-75
2022/01/28 03:22:11;;;;;;;;;;;4.00;99.90;;;;;;5074644;28;19920;-75
2022/01/28 03:24:37;;;;;;;;;;;4.00;99.90;;;;;;5073852;28;19920;-75
2022/01/28 03:27:09;;;;;;;;;;;4.00;99.90;;;;;;5074371;28;19920;-75
2022/01/28 03:29:34;;;;;;;;;;;4.00;99.90;;;;;;5063389;28;19920;-75
2022/01/28 03:32:00;;;;;;;;;;;4.00;99.90;;;;;;5057248;28;20301;-75
2022/01/28 03:34:25;;;;;;;;;;;4.00;99.90;;;;;;5056972;28;19943;-74
2022/01/28 03:36:51;;;;;;;;;;;4.00;99.90;;;;;;5057302;28;19928;-75
2022/01/28 03:39:17;;;;;;;;;;;4.10;99.90;;;;;;5064544;28;19920;-75
2022/01/28 03:41:43;;;;;;;;;;;4.00;99.90;;;;;;5053972;28;19967;-75
2022/01/28 03:44:09;;;;;;;;;;;4.00;99.90;;;;;;5037228;28;19921;-75
2022/01/28 03:46:35;;;;;;;;;;;4.00;99.90;;;;;;5054170;28;19929;-75
2022/01/28 03:49:02;;;;;;;;;;;4.00;99.90;;;;;;5064017;28;19924;-75
2022/01/28 03:51:27;;;;;;;;;;;4.00;99.90;;;;;;5073911;28;19924;-75
2022/01/28 03:53:53;;;;;;;;;;;4.00;99.90;;;;;;5072650;28;19920;-75
2022/01/28 03:56:19;;;;;;;;;;;4.00;99.90;;;;;;5073995;28;19927;-75
2022/01/28 03:58:45;;;;;;;;;;;4.00;99.90;;;;;;5073703;28;19920;-75
2022/01/28 04:01:21;;;;;;;;;;;4.00;99.90;;;;;;5072840;28;19920;-76
2022/01/28 04:04:02;;;;;;;;;;;4.00;99.90;;;;;;5055864;28;19928;-75
2022/01/28 04:11:57;;;;;;;;;;;4.00;99.90;;;;;;5059720;28;19932;-75
2022/01/28 04:19:39;;;;;;;;;;;4.00;99.90;;;;;;5071915;28;20390;-76
2022/01/28 04:22:04;;;;;;;;;;;4.10;99.90;;;;;;5068741;28;19928;-75
2022/01/28 04:24:30;;;;;;;;;;;4.10;99.90;;;;;;5036736;28;20337;-76
2022/01/28 04:26:55;;;;;;;;;;;4.10;99.90;;;;;;5053409;28;20027;-75
2022/01/28 04:29:21;;;;;;;;;;;4.20;99.90;;;;;;5061972;22;19921;-75
2022/01/28 04:31:47;;;;;;;;;;;4.20;99.90;;;;;;5048792;28;19925;-75
2022/01/28 04:34:13;;;;;;;;;;;4.10;99.90;;;;;;5029086;28;19921;-75
2022/01/28 04:36:58;;;;;;;;;;;4.10;99.90;;;;;;5013066;28;19922;-75
2022/01/28 04:58:45;;;;;;;;;;;3.30;99.90;;;;;;5011909;28;19929;-75
2022/01/28 05:27:27;;;;;;;;;;;3.50;99.90;;;;;;5011839;28;19925;-75
2022/01/28 05:29:52;;;;;;;;;;;3.60;99.90;;;;;;5011238;28;19961;-75
2022/01/28 05:32:17;;;;;;;;;;;3.60;99.90;;;;;;5012150;28;19991;-75
2022/01/28 05:34:43;;;;;;;;;;;3.70;99.90;;;;;;4995225;28;19979;-75
2022/01/28 05:37:08;;;;;;;;;;;3.70;99.90;;;;;;5011652;28;19921;-75
2022/01/28 05:39:34;;;;;;;;;;;3.80;99.90;;;;;;4994937;28;19921;-75
2022/01/28 05:42:00;;;;;;;;;;;3.80;99.90;;;;;;5011335;28;20004;-75
2022/01/28 05:44:27;;;;;;;;;;;3.90;99.90;;;;;;5011348;28;20012;-75
2022/01/28 05:46:55;;;;;;;;;;;3.90;99.90;;;;;;5011438;28;19922;-75
2022/01/28 05:49:21;;;;;;;;;;;4.00;99.90;;;;;;5011067;28;19925;-75
2022/01/28 05:51:46;;;;;;;;;;;4.00;99.90;;;;;;5011463;28;19979;-75
2022/01/28 05:54:12;;;;;;;;;;;4.00;99.90;;;;;;4994735;28;19931;-76
2022/01/28 05:56:37;;;;;;;;;;;4.10;99.90;;;;;;5011290;28;19928;-76
2022/01/28 05:59:03;;;;;;;;;;;4.20;99.90;;;;;;5011058;28;20387;-76
2022/01/28 06:01:28;;;;;;;;;;;4.10;99.90;;;;;;4994775;28;19928;-76
2022/01/28 06:03:54;;;;;;;;;;;4.10;99.90;;;;;;5010839;28;19929;-76
2022/01/28 06:06:21;;;;;;;;;;;4.00;99.90;;;;;;5010980;28;19921;-76
2022/01/28 06:08:48;;;;;;;;;;;3.90;99.90;;;;;;5010677;28;19922;-76
2022/01/28 06:11:14;;;;;;;;;;;3.80;99.90;;;;;;5011367;28;19930;-75
2022/01/28 06:13:39;;;;;;;;;;;3.70;99.90;;;;;;5011172;28;20012;-75
2022/01/28 06:16:05;;;;;;;;;;;3.60;99.90;;;;;;5010332;28;20383;-75
2022/01/28 06:18:30;;;;;;;;;;;3.50;99.90;;;;;;5010918;28;20008;-75
2022/01/28 06:20:56;;;;;;;;;;;3.40;99.90;;;;;;5010867;28;20372;-76
2022/01/28 06:23:21;;;;;;;;;;;3.30;99.90;;;;;;5027354;28;20283;-75
2022/01/28 06:25:48;;;;;;;;;;;3.30;99.90;;;;;;4994674;28;19921;-75
2022/01/28 06:28:13;;;;;;;;;;;3.20;99.90;;;;;;4994134;28;19921;-76
2022/01/28 06:30:39;;;;;;;;;;;3.10;99.90;;;;;;5010755;28;19927;-75
2022/01/28 06:33:04;;;;;;;;;;;3.10;99.90;;;;;;5011070;28;20331;-75
2022/01/28 06:35:30;;;;;;;;;;;3.00;99.90;;;;;;5010726;28;20012;-75
2022/01/28 06:37:55;;;;;;;;;;;2.90;99.90;;;;;;5010988;28;19928;-75
2022/01/28 06:40:21;;;;;;;;;;;2.80;99.90;;;;;;4994470;28;19922;-75
2022/01/28 06:42:47;;;;;;;;;;;2.70;99.90;;;;;;5010421;28;19921;-75
2022/01/28 06:45:12;;;;;;;;;;;2.70;99.90;;;;;;5011046;28;19922;-75
2022/01/28 06:47:38;;;;;;;;;;;2.70;99.90;;;;;;5023829;28;20000;-75
2022/01/28 06:50:08;;;;;;;;;;;2.60;99.90;;;;;;5026718;28;20000;-75
2022/01/28 06:52:33;;;;;;;;;;;2.60;99.90;;;;;;5010677;28;20397;-76
2022/01/28 06:55:01;;;;;;;;;;;2.60;99.90;;;;;;5010886;28;20016;-75
2022/01/28 06:57:27;;;;;;;;;;;2.50;99.90;;;;;;5010438;28;19922;-75
2022/01/28 06:59:53;;;;;;;;;;;2.50;99.90;;;;;;5010681;28;20291;-75
2022/01/28 07:02:18;;;;;;;;;;;2.40;99.90;;;;;;4994544;28;19926;-75
2022/01/28 07:04:43;;;;;;;;;;;2.40;99.90;;;;;;5026957;28;19926;-76
2022/01/28 07:07:09;;;;;;;;;;;2.30;99.90;;;;;;5010571;28;20221;-75
2022/01/28 07:09:35;;;;;;;;;;;2.20;99.90;;;;;;5009947;28;20335;-75
2022/01/28 07:12:01;;;;;;;;;;;2.20;99.90;;;;;;5010558;28;19926;-75
2022/01/28 07:14:27;;;;;;;;;;;2.10;99.90;;;;;;5010071;28;19928;-75
2022/01/28 07:16:52;;;;;;;;;;;2.00;99.90;;;;;;5010561;28;20280;-76
2022/01/28 07:19:18;;;;;;;;;;;1.90;99.90;;;;;;5006972;28;20372;-76
2022/01/28 07:21:43;;;;;;;;;;;1.80;99.90;;;;;;4990889;28;19972;-75
2022/01/28 07:24:08;;;;;;;;;;;1.70;99.90;;;;;;5001604;28;19928;-75
2022/01/28 07:26:34;;;;;;;;;;;1.60;99.90;;;;;;5010812;28;19932;-75
2022/01/28 07:28:59;;;;;;;;;;;1.50;99.90;;;;;;5009505;28;19922;-75
2022/01/28 07:31:25;;;;;;;;;;;1.40;99.90;;;;;;5009392;28;19930;-75
2022/01/28 07:33:50;;;;;;;;;;;1.30;99.90;;;;;;5013750;28;19921;-75
2022/01/28 07:36:16;;;;;;;;;;;1.30;99.90;;;;;;5013803;28;20049;-73
2022/01/28 07:38:41;;;;;;;;;;;1.20;99.90;;;;;;5013783;28;20402;-74
2022/01/28 07:41:07;;;;;;;;;;;1.20;99.90;;;;;;5013249;28;20018;-76
2022/01/28 07:43:37;;;;;;;;;;;1.10;99.90;;;;;;5014046;28;20396;-75
2022/01/28 07:46:03;;;;;;;;;;;1.10;99.90;;;;;;5041781;28;19975;-75
2022/01/28 07:48:28;;;;;;;;;;;1.10;99.90;;;;;;5027528;28;20469;-75
2022/01/28 07:50:54;;;;;;;;;;;1.10;99.90;;;;;;4996722;28;20308;-75
2022/01/28 07:53:19;;;;;;;;;;;1.20;99.90;;;;;;5011997;28;20068;-75
2022/01/28 07:55:44;;;;;;;;;;;1.30;99.90;;;;;;5013269;28;20392;-74
2022/01/28 07:58:10;;;;;;;;;;;1.30;99.90;;;;;;5007466;28;20004;-74
2022/01/28 08:00:36;;;;;;;;;;;1.40;99.90;;;;;;5009108;28;20304;-74
2022/01/28 08:03:01;;;;;;;;;;;1.50;99.90;;;;;;5013205;28;20280;-74
2022/01/28 08:05:27;;;;;;;;;;;1.60;99.90;;;;;;5013004;28;20387;-74
2022/01/28 08:07:52;;;;;;;;;;;1.70;99.90;;;;;;5029083;28;19921;-75
2022/01/28 08:10:19;;;;;;;;;;;1.80;99.90;;;;;;4993527;28;19929;-74
2022/01/28 08:12:49;;;;;;;;;;;1.90;99.90;;;;;;4993742;28;20304;-74
2022/01/28 08:15:15;;;;;;;;;;;1.90;99.90;;;;;;4993630;28;19922;-74
2022/01/28 08:17:40;;;;;;;;;;;2.00;99.90;;;;;;5005458;28;19921;-75
2022/01/28 08:20:06;;;;;;;;;;;2.00;99.90;;;;;;5012673;28;19922;-74
2022/01/28 08:22:31;;;;;;;;;;;2.00;99.90;;;;;;5012703;28;20300;-74
2022/01/28 08:24:57;;;;;;;;;;;2.00;99.90;;;;;;5025805;28;20295;-75
2022/01/28 08:27:22;;;;;;;;;;;2.00;99.90;;;;;;5007565;28;19921;-76
2022/01/28 08:29:47;;;;;;;;;;;2.00;99.90;;;;;;5000770;28;19974;-75
2022/01/28 08:32:13;;;;;;;;;;;2.00;99.90;;;;;;5018352;28;19933;-76
2022/01/28 08:34:38;;;;;;;;;;;2.10;99.90;;;;;;4995387;28;19927;-76
2022/01/28 08:37:04;;;;;;;;;;;2.10;99.90;;;;;;5027490;28;19944;-74
2022/01/28 08:39:30;;;;;;;;;;;2.20;99.90;;;;;;4993201;28;19921;-74
2022/01/28 08:41:56;;;;;;;;;;;2.30;99.90;;;;;;5026291;28;20257;-74
2022/01/28 08:44:21;;;;;;;;;;;2.30;99.90;;;;;;4992904;28;19928;-74
2022/01/28 08:46:47;;;;;;;;;;;2.30;99.90;;;;;;4996788;28;20291;-74
2022/01/28 08:49:12;;;;;;;;;;;2.40;99.90;;;;;;4992622;28;19922;-74
2022/01/28 08:51:38;;;;;;;;;;;2.50;99.90;;;;;;4976913;28;20021;-74
2022/01/28 08:54:03;;;;;;;;;;;2.40;99.90;;;;;;4992662;28;19922;-74
2022/01/28 08:56:29;;;;;;;;;;;2.40;99.90;;;;;;4992952;28;19929;-74
2022/01/28 08:58:54;;;;;;;;;;;2.50;99.90;;;;;;4997603;28;20358;-74
2022/01/28 09:01:20;;;;;;;;;;;2.50;99.90;;;;;;5011861;28;19928;-74
2022/01/28 09:03:46;;;;;;;;;;;2.50;99.90;;;;;;5011829;28;19969;-74
2022/01/28 09:06:11;;;;;;;;;;;2.60;99.90;;;;;;5011058;28;20372;-75
2022/01/28 09:08:37;;;;;;;;;;;2.80;99.90;;;;;;5011655;28;19922;-74
2022/01/28 09:11:32;;;;;;;;;;;3.00;99.90;;;;;;5011582;28;19972;-74
2022/01/28 09:13:55;;;;;;;;;;;3.20;99.90;;;;;;5010583;28;19921;-75
2022/01/28 09:16:21;;;;;;;;;;;3.40;99.90;;;;;;5024487;28;19928;-75
2022/01/28 09:18:47;;;;;;;;;;;3.60;99.90;;;;;;4997325;28;19921;-75
2022/01/28 09:21:13;;;;;;;;;;;3.80;99.90;;;;;;5008577;28;19941;-75
2022/01/28 09:23:38;;;;;;;;;;;3.90;99.90;;;;;;5014484;28;19921;-76
2022/01/28 09:26:04;;;;;;;;;;;4.10;99.90;;;;;;5009330;28;20012;-76
2022/01/28 09:28:29;;;;;;;;;;;4.20;99.90;;;;;;5018376;28;19937;-76
2022/01/28 09:30:57;;;;;;;;;;;4.40;99.90;;;;;;5010792;28;19936;-76
2022/01/28 09:33:23;;;;;;;;;;;4.50;99.90;;;;;;5011287;28;20261;-76
2022/01/28 09:35:48;;;;;;;;;;;4.60;99.90;;;;;;4994254;28;19929;-76
2022/01/28 09:38:14;;;;;;;;;;;4.90;99.90;;;;;;5011246;28;19922;-76
2022/01/28 09:40:39;;;;;;;;;;;5.10;99.90;;;;;;5008752;28;19922;-76
2022/01/28 09:43:07;;;;;;;;;;;5.30;99.90;;;;;;5011435;28;19925;-76
2022/01/28 09:45:33;;;;;;;;;;;5.50;99.90;;;;;;5010797;28;19929;-76
2022/01/28 09:47:59;;;;;;;;;;;5.60;99.90;;;;;;5019554;28;19921;-76
2022/01/28 09:50:26;;;;;;;;;;;5.60;99.90;;;;;;5027581;28;19936;-75
2022/01/28 09:52:53;;;;;;;;;;;5.70;99.90;;;;;;5009503;28;20380;-75
2022/01/28 09:55:18;;;;;;;;;;;5.70;99.90;;;;;;5023925;28;20335;-75
2022/01/28 09:57:47;;;;;;;;;;;5.70;99.90;;;;;;5011360;28;19967;-75
2022/01/28 10:00:13;;;;;;;;;;;5.70;99.90;;;;;;5011211;28;19987;-75
2022/01/28 10:02:49;;;;;;;;;;;5.70;99.90;;;;;;5010833;28;20016;-74
2022/01/28 10:05:17;;;;;;;;;;;5.70;99.90;;;;;;5004494;28;19921;-75
2022/01/28 10:07:57;;;;;;;;;;;5.70;99.90;;;;;;5010908;28;19922;-75
2022/01/28 10:10:23;;;;;;;;;;;5.80;99.90;;;;;;4994456;28;20490;-73
2022/01/28 10:13:06;;;;;;;;;;;5.80;99.90;;;;;;5011006;28;20016;-73
2022/01/28 10:15:31;;;;;;;;;;;5.80;99.90;;;;;;5010944;28;19960;-73
2022/01/28 10:17:58;;;;;;;;;;;5.90;99.90;;;;;;5010906;28;19975;-73
2022/01/28 10:20:24;;;;;;;;;;;5.90;99.90;;;;;;5010588;28;19921;-73
2022/01/28 10:22:50;;;;;;;;;;;5.90;99.90;;;;;;5011179;28;20280;-73
2022/01/28 10:25:24;;;;;;;;;;;5.90;99.90;;;;;;5027441;28;19925;-73
2022/01/28 10:27:56;;;;;;;;;;;5.90;99.90;;;;;;5010631;28;20008;-73
2022/01/28 10:30:22;;;;;;;;;;;6.00;99.90;;;;;;5026616;22;19925;-73
2022/01/28 10:33:07;;;;;;;;;;;6.00;99.90;;;;;;5066150;28;20366;-73
2022/01/28 10:35:33;;;;;;;;;;;6.10;99.90;;;;;;5070464;28;20011;-73
2022/01/28 10:37:59;;;;;;;;;;;6.30;99.90;;;;;;5071166;28;20018;-73
2022/01/28 10:40:24;;;;;;;;;;;6.40;99.90;;;;;;5061182;28;19940;-73
2022/01/28 10:42:52;;;;;;;;;;;6.50;99.90;;;;;;5041621;28;19921;-72
2022/01/28 10:45:22;;;;;;;;;;;6.60;99.90;;;;;;5050791;28;20007;-72
2022/01/28 10:47:53;;;;;;;;;;;6.70;99.90;;;;;;5033360;28;20029;-73
2022/01/28 10:50:23;;;;;;;;;;;6.80;99.90;;;;;;5043778;28;19921;-72
2022/01/28 10:52:58;;;;;;;;;;;6.80;99.90;;;;;;5031139;28;19979;-72
2022/01/28 10:55:23;;;;;;;;;;;6.90;99.90;;;;;;5031042;28;19976;-72
2022/01/28 10:58:15;;;;;;;;;;;7.00;99.90;;;;;;5032062;28;19956;-72
2022/01/28 11:00:42;;;;;;;;;;;7.00;99.90;;;;;;5027562;28;19921;-73
2022/01/28 11:03:09;;;;;;;;;;;7.00;99.90;;;;;;5065445;28;20401;-72
2022/01/28 11:05:35;;;;;;;;;;;7.10;99.90;;;;;;5035654;28;19937;-72
2022/01/28 11:08:02;;;;;;;;;;;7.20;99.90;;;;;;5035834;28;20359;-72
2022/01/28 11:10:28;;;;;;;;;;;7.20;99.90;;;;;;5034043;28;19925;-72
2022/01/28 11:12:54;;;;;;;;;;;7.30;99.90;;;;;;5033929;28;19931;-73
2022/01/28 11:15:20;;;;;;;;;;;7.40;99.90;;;;;;5067740;28;19925;-73
2022/01/28 11:17:47;;;;;;;;;;;7.60;99.90;;;;;;5066990;28;19967;-72
2022/01/28 11:20:15;;;;;;;;;;;7.90;99.90;;;;;;5040410;28;19921;-73
2022/01/28 11:22:45;;;;;;;;;;;8.00;99.90;;;;;;5035737;28;19921;-75
2022/01/28 11:25:14;;;;;;;;;;;8.10;99.90;;;;;;5033969;28;19921;-75
2022/01/28 11:27:40;;;;;;;;;;;8.20;99.90;;;;;;5038313;28;20306;-73
2022/01/28 11:30:20;;;;;;;;;;;8.20;99.90;;;;;;5053648;28;19928;-73
2022/01/28 11:33:06;;;;;;;;;;;8.20;99.90;;;;;;5045428;28;19932;-73
2022/01/28 11:35:39;;;;;;;;;;;8.20;99.90;;;;;;5066333;28;21377;-73
2022/01/28 11:38:24;;;;;;;;;;;8.20;99.90;;;;;;5033650;28;19960;-73
2022/01/28 11:40:51;;;;;;;;;;;8.20;99.90;;;;;;5033396;28;20310;-73
2022/01/28 11:43:21;;;;;;;;;;;8.20;99.90;;;;;;5047028;28;19921;-73
2022/01/28 11:45:46;;;;;;;;;;;8.10;99.90;;;;;;5053528;28;19921;-73
2022/01/28 11:48:12;;;;;;;;;;;8.10;99.90;;;;;;5053459;28;20337;-73
2022/01/28 11:50:37;;;;;;;;;;;8.10;99.90;;;;;;5034475;28;19980;-73
2022/01/28 11:53:19;;;;;;;;;;;8.00;99.90;;;;;;5049934;28;20375;-73
2022/01/28 11:55:59;;;;;;;;;;;7.90;99.90;;;;;;5070239;28;19921;-73
2022/01/28 11:58:44;;;;;;;;;;;7.90;99.90;;;;;;5053347;28;20015;-73
2022/01/28 12:01:10;;;;;;;;;;;7.90;99.90;;;;;;5036598;28;19975;-73
2022/01/28 12:03:36;;;;;;;;;;;7.80;99.90;;;;;;5049658;28;20011;-73
2022/01/28 12:06:09;;;;;;;;;;;7.80;99.90;;;;;;5051187;28;19983;-73
2022/01/28 12:08:38;;;;;;;;;;;7.80;99.90;;;;;;5052920;28;19921;-73
2022/01/28 12:11:08;;;;;;;;;;;7.80;99.90;;;;;;5036279;28;19924;-73
2022/01/28 12:13:48;;;;;;;;;;;7.80;99.90;;;;;;5051886;28;19921;-73
2022/01/28 12:16:24;;;;;;;;;;;8.50;99.90;;;;;;5035568;28;19928;-73
2022/01/28 12:18:57;;;;;;;;;;;9.70;99.90;;;;;;5052882;28;19960;-73
2022/01/28 12:21:25;;;;;;;;;;;10.90;99.90;;;;;;5038005;28;19921;-73
2022/01/28 12:23:52;;;;;;;;;;;11.80;99.90;;;;;;5065821;28;20421;-73
2022/01/28 12:26:19;;;;;;;;;;;12.50;99.90;;;;;;5032763;28;19921;-73
2022/01/28 12:28:49;;;;;;;;;;;13.30;99.90;;;;;;5049150;28;20389;-73
2022/01/28 12:31:20;;;;;;;;;;;13.60;99.90;;;;;;5046348;28;20394;-73
2022/01/28 12:33:49;;;;;;;;;;;13.90;99.90;;;;;;5052608;28;20412;-73
2022/01/28 12:36:18;;;;;;;;;;;14.10;99.50;;;;;;5051549;28;20265;-73
2022/01/28 12:38:57;;;;;;;;;;;14.40;99.90;;;;;;5052534;28;20015;-73
2022/01/28 12:41:24;;;;;;;;;;;14.20;99.90;;;;;;5035878;28;19920;-73
2022/01/28 12:43:49;;;;;;;;;;;13.60;99.90;;;;;;5030404;28;19921;-73
2022/01/28 12:46:15;;;;;;;;;;;12.90;99.90;;;;;;5032362;28;19976;-73
2022/01/28 12:48:52;;;;;;;;;;;12.90;99.90;;;;;;5032227;28;19947;-73
2022/01/28 12:51:21;;;;;;;;;;;12.70;99.90;;;;;;5031772;28;19940;-73
2022/01/28 12:53:49;;;;;;;;;;;12.10;99.90;;;;;;5033113;28;19921;-73
2022/01/28 12:56:18;;;;;;;;;;;11.40;99.90;;;;;;5032482;28;19991;-73
2022/01/28 12:58:48;;;;;;;;;;;10.70;99.90;;;;;;5032448;28;19921;-73
2022/01/28 13:01:15;;;;;;;;;;;10.50;99.90;;;;;;5032666;28;19936;-73
2022/01/28 13:03:54;;;;;;;;;;;10.60;99.90;;;;;;5044442;28;20007;-73
2022/01/28 13:06:26;;;;;;;;;;;10.50;99.90;;;;;;5035208;28;19959;-73
2022/01/28 13:08:52;;;;;;;;;;;10.40;99.90;;;;;;5052115;28;20027;-73
2022/01/28 13:11:18;;;;;;;;;;;10.20;99.90;;;;;;5051731;28;19964;-72
2022/01/28 13:13:53;;;;;;;;;;;10.00;99.90;;;;;;5032128;28;20375;-73
2022/01/28 13:16:32;;;;;;;;;;;9.80;99.90;;;;;;5036311;28;19925;-73
2022/01/28 13:18:58;;;;;;;;;;;9.50;99.90;;;;;;5066253;28;19924;-73
2022/01/28 13:21:24;;;;;;;;;;;9.10;99.90;;;;;;5051611;28;19921;-73
2022/01/28 13:24:02;;;;;;;;;;;8.80;99.90;;;;;;5047762;28;19929;-73
2022/01/28 13:26:28;;;;;;;;;;;8.50;99.90;;;;;;5048255;28;20396;-73
2022/01/28 13:29:04;;;;;;;;;;;8.30;99.90;;;;;;5032178;28;20025;-73
2022/01/28 13:31:29;;;;;;;;;;;8.10;99.90;;;;;;5051367;28;20016;-73
2022/01/28 13:33:59;;;;;;;;;;;8.00;99.90;;;;;;5051396;28;20011;-73
2022/01/28 13:36:24;;;;;;;;;;;7.70;99.90;;;;;;5051457;28;20008;-73
2022/01/28 13:38:51;;;;;;;;;;;7.60;99.90;;;;;;5035120;28;20388;-73
2022/01/28 13:41:21;;;;;;;;;;;7.50;99.90;;;;;;5031340;28;20011;-74
2022/01/28 13:43:46;;;;;;;;;;;7.40;99.90;;;;;;5032124;28;20403;-73
2022/01/28 13:46:12;;;;;;;;;;;7.30;99.90;;;;;;5031426;28;19921;-73
2022/01/28 13:48:39;;;;;;;;;;;7.20;99.90;;;;;;5031160;28;20383;-73
2022/01/28 13:51:04;;;;;;;;;;;7.10;99.90;;;;;;5031171;28;19921;-73
2022/01/28 13:54:09;;;;;;;;;;;7.00;99.90;;;;;;5040982;28;20375;-73
2022/01/28 13:56:15;;;;;;;;;;;6.90;99.90;;;;;;5050429;28;20406;-73
2022/01/28 13:58:42;;;;;;;;;;;6.90;99.90;;;;;;5031552;28;19964;-73
2022/01/28 14:01:08;;;;;;;;;;;6.90;99.90;;;;;;5014830;28;19932;-73
2022/01/28 14:03:45;;;;;;;;;;;6.90;99.90;;;;;;5038336;28;19928;-73
2022/01/28 14:06:15;;;;;;;;;;;6.90;99.90;;;;;;5032994;28;19921;-73
2022/01/28 14:08:41;;;;;;;;;;;7.00;99.90;;;;;;5042906;28;20502;-74
2022/01/28 14:11:28;;;;;;;;;;;7.00;99.90;;;;;;5041662;28;20007;-74
2022/01/28 14:14:15;;;;;;;;;;;7.10;99.90;;;;;;5020253;28;19921;-74
2022/01/28 14:16:41;;;;;;;;;;;7.30;99.90;;;;;;5044797;28;19924;-75
2022/01/28 14:19:07;;;;;;;;;;;7.40;99.90;;;;;;5047034;28;20076;-74
2022/01/28 14:21:32;;;;;;;;;;;7.50;99.90;;;;;;5033825;28;20035;-73
2022/01/28 14:23:58;;;;;;;;;;;7.60;99.90;;;;;;5033927;28;19921;-73
2022/01/28 14:26:23;;;;;;;;;;;7.70;99.90;;;;;;5038126;28;19925;-74
2022/01/28 14:31:23;;;;;;;;;;;7.70;99.90;;;;;;5031978;28;19971;-73
2022/01/28 14:33:49;;;;;;;;;;;7.90;99.90;;;;;;5063668;28;20338;-73
2022/01/28 14:36:16;;;;;;;;;;;7.80;99.90;;;;;;5049301;28;19925;-73
2022/01/28 14:38:42;;;;;;;;;;;7.90;99.90;;;;;;5047618;28;19921;-77
2022/01/28 14:41:09;;;;;;;;;;;7.90;99.90;;;;;;5040622;28;20004;-75
2022/01/28 14:43:35;;;;;;;;;;;7.80;99.90;;;;;;5054294;28;19963;-75
2022/01/28 14:46:00;;;;;;;;;;;7.70;99.90;;;;;;5018542;28;20026;-75
2022/01/28 14:48:28;;;;;;;;;;;7.70;99.90;;;;;;5034791;28;19932;-76
2022/01/28 14:50:53;;;;;;;;;;;7.70;99.90;;;;;;5067728;28;20387;-75
2022/01/28 14:53:19;;;;;;;;;;;7.70;99.90;;;;;;5067327;28;19928;-75
2022/01/28 14:55:44;;;;;;;;;;;7.70;99.90;;;;;;5044954;28;19971;-74
2022/01/28 14:58:10;;;;;;;;;;;7.60;99.90;;;;;;5051520;28;19929;-75
2022/01/28 15:00:35;;;;;;;;;;;7.60;99.90;;;;;;5070554;28;20004;-75
2022/01/28 15:03:01;;;;;;;;;;;7.40;99.90;;;;;;5049996;28;19932;-75
2022/01/28 15:05:28;;;;;;;;;;;7.30;99.90;;;;;;5048076;28;19928;-75
2022/01/28 15:07:54;;;;;;;;;;;7.30;99.90;;;;;;5050557;28;19921;-75
2022/01/28 15:10:26;;;;;;;;;;;7.10;99.90;;;;;;5033491;28;20288;-75
2022/01/28 15:12:52;;;;;;;;;;;7.10;99.90;;;;;;5036921;28;19936;-75
2022/01/28 15:15:18;;;;;;;;;;;7.00;99.90;;;;;;5034410;28;20279;-75
2022/01/28 15:17:43;;;;;;;;;;;6.90;99.90;;;;;;5031952;28;19921;-75
2022/01/28 15:20:09;;;;;;;;;;;6.80;99.90;;;;;;5036636;28;19921;-75
2022/01/28 15:22:34;;;;;;;;;;;6.70;99.90;;;;;;5050023;28;19928;-75
2022/01/28 15:25:04;;;;;;;;;;;6.70;99.90;;;;;;5031152;28;19944;-75
2022/01/28 15:27:31;;;;;;;;;;;6.60;99.90;;;;;;5036328;28;19956;-75
2022/01/28 15:30:04;;;;;;;;;;;6.50;99.90;;;;;;5048728;28;20308;-75
2022/01/28 15:37:39;;;;;;;;;;;6.30;99.90;;;;;;5053980;28;19920;-75
2022/01/28 15:40:05;;;;;;;;;;;6.20;99.90;;;;;;5045782;28;20010;-75
2022/01/28 15:42:30;;;;;;;;;;;6.20;99.90;;;;;;5033482;28;19928;-75
2022/01/28 15:44:56;;;;;;;;;;;6.10;99.90;;;;;;5042701;28;19928;-75
2022/01/28 15:47:21;;;;;;;;;;;6.10;99.90;;;;;;5020266;28;19929;-74
2022/01/28 15:49:47;;;;;;;;;;;6.00;99.90;;;;;;5033573;28;20414;-75
2022/01/28 15:52:13;;;;;;;;;;;6.00;99.90;;;;;;5041062;28;19928;-75
2022/01/28 15:54:38;;;;;;;;;;;5.90;99.90;;;;;;5052677;28;19967;-75
2022/01/28 15:57:04;;;;;;;;;;;5.90;99.90;;;;;;5052894;28;19967;-75
2022/01/28 15:59:30;;;;;;;;;;;5.90;99.90;;;;;;5049512;28;20383;-74
2022/01/28 16:01:55;;;;;;;;;;;5.80;99.90;;;;;;5047247;28;19921;-74
2022/01/28 16:04:21;;;;;;;;;;;5.70;99.90;;;;;;5047039;28;19966;-74
2022/01/28 16:06:48;;;;;;;;;;;5.70;99.90;;;;;;5040443;28;19927;-74
2022/01/28 16:09:14;;;;;;;;;;;5.60;99.90;;;;;;5052913;28;20294;-73
2022/01/28 16:11:55;;;;;;;;;;;5.50;99.90;;;;;;5022610;28;19925;-74
2022/01/28 16:14:33;;;;;;;;;;;5.50;99.90;;;;;;5051045;28;20310;-74